Milouin — FT9009 — position and weather

sailwx.info

Track history (hours):
 
Tides and Currents Weather Stations Pressure Air Temp Water Temp Dewpoint Dewpoint Depression Visibility Wind Speed Wind Dir Waves Ship Positions

Milouin

Last reported at 2016-Feb-02 12:33 UTC. Time now 2016-Feb-12 03:44 UTC.
Position N 47°17' W 002°12'.
Warning: this ship's position is 9 days out of date.

Length 36 m; draft 2.5 m.

Type: Ship. MMSI: 227003190.

Date/timePositionNaut miles runAvg speedWind from/ knotsBaromVisibWave heightAir tempDewpointWater temp
2016-Feb-02 12:33N 47°17' W 002°12'0 0.0
2016-Feb-02 07:33N 47°17' W 002°12'0 0.0
2016-Feb-02 03:26N 47°17' W 002°12'0 0.0
2016-Feb-02 01:28N 47°17' W 002°12'0 0.0
2016-Feb-01 17:15N 47°17' W 002°12'0 0.0
2016-Feb-01 16:27N 47°17' W 002°12'0 0.0
2016-Feb-01 15:33N 47°17' W 002°12'0 0.0
2016-Feb-01 14:30N 47°17' W 002°12'0 0.0
2016-Feb-01 13:33N 47°17' W 002°12'0 0.0
2016-Feb-01 12:33N 47°17' W 002°12'0 0.0
2016-Feb-01 11:34N 47°17' W 002°12'1 0.5
2016-Feb-01 10:33N 47°17' W 002°12'2 1.8
2016-Feb-01 09:33N 47°18' W 002°10'2 2.0
2016-Feb-01 08:30N 47°16' W 002°12'1 1.1
2016-Feb-01 07:33N 47°17' W 002°12'0 0.0
2016-Feb-01 06:33N 47°17' W 002°12'0 0.0
2016-Feb-01 05:33N 47°17' W 002°12'0 0.0
2016-Feb-01 04:32N 47°17' W 002°12'0 0.0
2016-Feb-01 03:33N 47°17' W 002°12'0 0.0
2016-Feb-01 02:33N 47°17' W 002°12'0 0.0
2016-Feb-01 01:33N 47°17' W 002°12'0 0.0
2016-Feb-01 00:34N 47°17' W 002°12'0 0.0
2016-Jan-31 23:33N 47°17' W 002°12'0 0.0
2016-Jan-31 22:33N 47°17' W 002°12'0 0.0
2016-Jan-31 21:33N 47°17' W 002°12'0 0.0
2016-Jan-31 20:33N 47°17' W 002°12'0 0.0
2016-Jan-31 19:33N 47°17' W 002°12'0 0.0
2016-Jan-31 18:33N 47°17' W 002°12'0 0.0
2016-Jan-31 17:33N 47°17' W 002°12'0 0.0
2016-Jan-31 16:33N 47°17' W 002°12'0 0.0
2016-Jan-31 15:33N 47°17' W 002°12'0 0.0
2016-Jan-31 14:33N 47°17' W 002°12'0 0.0
2016-Jan-31 13:33N 47°17' W 002°12'0 0.0
2016-Jan-31 12:34N 47°17' W 002°12'0 0.0
2016-Jan-31 11:33N 47°17' W 002°12'0 0.0
2016-Jan-31 10:33N 47°17' W 002°12'0 0.0
2016-Jan-31 09:33N 47°17' W 002°12'0 0.0
2016-Jan-31 08:33N 47°17' W 002°12'0 0.0
2016-Jan-31 07:33N 47°17' W 002°12'0 0.0
2016-Jan-31 06:33N 47°17' W 002°12'0 0.0
2016-Jan-31 05:33N 47°17' W 002°12'0 0.0
2016-Jan-31 04:33N 47°17' W 002°12'0 0.0
2016-Jan-31 03:33N 47°17' W 002°12'0 0.0
2016-Jan-31 02:33N 47°17' W 002°12'0 0.0
2016-Jan-31 01:33N 47°17' W 002°12'0 0.0
2016-Jan-31 00:33N 47°17' W 002°12'0 0.0
2016-Jan-30 19:13N 47°17' W 002°12'0 0.0
2016-Jan-30 15:31N 47°17' W 002°12'0 0.0
2016-Jan-30 14:33N 47°17' W 002°12'0 0.0
2016-Jan-30 13:33N 47°17' W 002°12'0 0.0
2016-Jan-30 12:33N 47°17' W 002°12'0 0.0
2016-Jan-30 11:34N 47°17' W 002°12'0 0.3
2016-Jan-30 10:34N 47°17' W 002°12'2 1.7
2016-Jan-30 09:33N 47°17' W 002°10'6 0.6
2016-Jan-29 23:29N 47°17' W 002°01'0 0.0
2016-Jan-29 22:30N 47°17' W 002°01'0 0.0
2016-Jan-29 19:22N 47°17' W 002°01'0 0.0
2016-Jan-29 18:33N 47°17' W 002°01'0 0.0
2016-Jan-29 17:33N 47°17' W 002°01'0 0.0
2016-Jan-29 16:29N 47°17' W 002°01'0 0.0
2016-Jan-29 15:32N 47°17' W 002°01'0 0.0
2016-Jan-29 14:22N 47°17' W 002°01'0 0.0
2016-Jan-29 05:10N 47°17' W 002°01'0 0.0
2016-Jan-29 04:33N 47°17' W 002°01'0 0.0
2016-Jan-29 03:32N 47°17' W 002°01'0 0.0
2016-Jan-29 02:33N 47°17' W 002°01'0 0.0
2016-Jan-29 01:23N 47°17' W 002°01'0 0.0
2016-Jan-29 00:31N 47°17' W 002°01'0 0.0
2016-Jan-28 23:33N 47°17' W 002°01'0 0.0
2016-Jan-28 22:33N 47°17' W 002°01'0 0.0
2016-Jan-28 21:33N 47°17' W 002°01'0 0.0
2016-Jan-28 12:32N 47°17' W 002°01'3 3.0
2016-Jan-28 11:33N 47°18' W 002°05'5 4.7
2016-Jan-28 10:33N 47°16' W 002°12'1 0.9
2016-Jan-28 09:14N 47°17' W 002°12'1 1.4
2016-Jan-28 08:31N 47°16' W 002°12'0 0.2
2016-Jan-28 07:14N 47°17' W 002°12'4 6.2
2016-Jan-28 06:33N 47°18' W 002°06'3 3.3
2016-Jan-28 05:31N 47°17' W 002°01'0 0.0
2016-Jan-27 05:30N 47°17' W 002°01'0 0.0
2016-Jan-27 04:33N 47°17' W 002°01'0 0.0
2016-Jan-27 03:33N 47°17' W 002°01'0 0.0
2016-Jan-27 02:33N 47°17' W 002°01'0 0.0
2016-Jan-27 01:33N 47°17' W 002°01'0 0.0
2016-Jan-27 00:21N 47°17' W 002°01'0 0.0
2016-Jan-26 23:33N 47°17' W 002°01'0 0.0
2016-Jan-26 22:30N 47°17' W 002°01'0 0.0
2016-Jan-26 21:08N 47°17' W 002°01'0 0.0
2016-Jan-26 13:29N 47°17' W 002°01'0 0.0
2016-Jan-26 12:33N 47°17' W 002°01'0 0.0
2016-Jan-26 11:30N 47°17' W 002°01'0 0.0
2016-Jan-26 10:32N 47°17' W 002°01'0 0.0
2016-Jan-26 08:30N 47°17' W 002°01'0 0.0
2016-Jan-26 07:32N 47°17' W 002°01'0 0.0
2016-Jan-26 06:33N 47°17' W 002°01'0 0.0
2016-Jan-26 05:33N 47°17' W 002°01'0 0.0
2016-Jan-26 04:33N 47°17' W 002°01'0 0.0
2016-Jan-26 03:33N 47°17' W 002°01'0 0.0
2016-Jan-26 02:33N 47°17' W 002°01'0 0.0
2016-Jan-26 01:33N 47°17' W 002°01'0 0.0
2016-Jan-26 00:33N 47°17' W 002°01'0 0.0
2016-Jan-25 23:33N 47°17' W 002°01'0 0.0
2016-Jan-25 22:33N 47°17' W 002°01'0 0.0
2016-Jan-25 21:32N 47°17' W 002°01'0 0.0
2016-Jan-25 20:29N 47°17' W 002°01'0 0.0
2016-Jan-25 19:33N 47°17' W 002°01'0 0.0
2016-Jan-25 17:14N 47°17' W 002°01'0 0.0
2016-Jan-25 16:33N 47°17' W 002°01'0 0.0
2016-Jan-25 11:33N 47°17' W 002°01'0 0.0
2016-Jan-25 10:30N 47°17' W 002°01'0 0.0
2016-Jan-25 09:27N 47°17' W 002°01'0 0.0
2016-Jan-25 02:17N 47°17' W 002°01'0 0.0
2016-Jan-25 01:30N 47°17' W 002°01'0 0.0
2016-Jan-25 00:33N 47°17' W 002°01'0 0.0
2016-Jan-24 23:32N 47°17' W 002°01'0 0.0
2016-Jan-24 22:33N 47°17' W 002°01'0 0.0
2016-Jan-24 21:33N 47°17' W 002°01'0 0.0
2016-Jan-24 20:33N 47°17' W 002°01'0 0.0
2016-Jan-24 19:33N 47°17' W 002°01'0 0.0
2016-Jan-24 18:33N 47°17' W 002°01'0 0.0
2016-Jan-24 17:33N 47°17' W 002°01'0 0.0
2016-Jan-24 16:33N 47°17' W 002°01'0 0.0
2016-Jan-24 15:33N 47°17' W 002°01'0 0.0
2016-Jan-24 14:32N 47°17' W 002°01'3 2.6
2016-Jan-24 13:33N 47°18' W 002°05'5 5.1
2016-Jan-24 12:33N 47°16' W 002°12'0 0.0
2016-Jan-24 11:33N 47°16' W 002°12'1 0.6
2016-Jan-24 10:33N 47°16' W 002°11'1 1.2
2016-Jan-24 09:33N 47°17' W 002°10'3 3.0
2016-Jan-24 08:33N 47°18' W 002°06'3 3.3
2016-Jan-24 07:32N 47°17' W 002°01'0 0.0
2016-Jan-24 06:33N 47°17' W 002°01'0 0.0
2016-Jan-24 05:30N 47°17' W 002°01'0 0.0
2016-Jan-24 04:33N 47°17' W 002°01'0 0.0
2016-Jan-24 03:32N 47°17' W 002°01'0 0.0
2016-Jan-24 02:33N 47°17' W 002°01'0 0.0
2016-Jan-24 01:33N 47°17' W 002°01'0 0.0
2016-Jan-24 00:32N 47°17' W 002°01'0 0.0
2016-Jan-23 23:29N 47°17' W 002°01'0 0.0
2016-Jan-23 22:30N 47°17' W 002°01'0 0.0
2016-Jan-23 21:27N 47°17' W 002°01'0 0.0
2016-Jan-23 20:33N 47°17' W 002°01'0 0.0
2016-Jan-23 19:32N 47°17' W 002°01'0 0.0
2016-Jan-23 18:33N 47°17' W 002°01'0 0.0
2016-Jan-23 17:33N 47°17' W 002°01'0 0.0
2016-Jan-23 15:31N 47°17' W 002°01'0 0.0
2016-Jan-23 14:29N 47°17' W 002°01'0 0.0
2016-Jan-23 13:32N 47°17' W 002°01'0 0.0
2016-Jan-23 12:33N 47°17' W 002°01'  
Track history (hours):
 
Tides and Currents Weather Stations Pressure Air Temp Water Temp Dewpoint Dewpoint Depression Visibility Wind Speed Wind Dir Waves Ship Positions

Milouin

Last reported at 2016-Feb-02 12:33 UTC. Time now 2016-Feb-12 03:44 UTC.
Position N 47°17' W 002°12'.
Warning: this ship's position is 9 days out of date.

Length 36 m; draft 2.5 m.

Type: Ship. MMSI: 227003190.

Date/timePositionNaut miles runAvg speedWind from/ knotsBaromVisibWave heightAir tempDewpointWater temp
2016-Feb-02 12:33N 47°17' W 002°12'0 0.0
2016-Feb-02 07:33N 47°17' W 002°12'0 0.0
2016-Feb-02 03:26N 47°17' W 002°12'0 0.0
2016-Feb-02 01:28N 47°17' W 002°12'0 0.0
2016-Feb-01 17:15N 47°17' W 002°12'0 0.0
2016-Feb-01 16:27N 47°17' W 002°12'0 0.0
2016-Feb-01 15:33N 47°17' W 002°12'0 0.0
2016-Feb-01 14:30N 47°17' W 002°12'0 0.0
2016-Feb-01 13:33N 47°17' W 002°12'0 0.0
2016-Feb-01 12:33N 47°17' W 002°12'0 0.0
2016-Feb-01 11:34N 47°17' W 002°12'1 0.5
2016-Feb-01 10:33N 47°17' W 002°12'2 1.8
2016-Feb-01 09:33N 47°18' W 002°10'2 2.0
2016-Feb-01 08:30N 47°16' W 002°12'1 1.1
2016-Feb-01 07:33N 47°17' W 002°12'0 0.0
2016-Feb-01 06:33N 47°17' W 002°12'0 0.0
2016-Feb-01 05:33N 47°17' W 002°12'0 0.0
2016-Feb-01 04:32N 47°17' W 002°12'0 0.0
2016-Feb-01 03:33N 47°17' W 002°12'0 0.0
2016-Feb-01 02:33N 47°17' W 002°12'0 0.0
2016-Feb-01 01:33N 47°17' W 002°12'0 0.0
2016-Feb-01 00:34N 47°17' W 002°12'0 0.0
2016-Jan-31 23:33N 47°17' W 002°12'0 0.0
2016-Jan-31 22:33N 47°17' W 002°12'0 0.0
2016-Jan-31 21:33N 47°17' W 002°12'0 0.0
2016-Jan-31 20:33N 47°17' W 002°12'0 0.0
2016-Jan-31 19:33N 47°17' W 002°12'0 0.0
2016-Jan-31 18:33N 47°17' W 002°12'0 0.0
2016-Jan-31 17:33N 47°17' W 002°12'0 0.0
2016-Jan-31 16:33N 47°17' W 002°12'0 0.0
2016-Jan-31 15:33N 47°17' W 002°12'0 0.0
2016-Jan-31 14:33N 47°17' W 002°12'0 0.0
2016-Jan-31 13:33N 47°17' W 002°12'0 0.0
2016-Jan-31 12:34N 47°17' W 002°12'0 0.0
2016-Jan-31 11:33N 47°17' W 002°12'0 0.0
2016-Jan-31 10:33N 47°17' W 002°12'0 0.0
2016-Jan-31 09:33N 47°17' W 002°12'0 0.0
2016-Jan-31 08:33N 47°17' W 002°12'0 0.0
2016-Jan-31 07:33N 47°17' W 002°12'0 0.0
2016-Jan-31 06:33N 47°17' W 002°12'0 0.0
2016-Jan-31 05:33N 47°17' W 002°12'0 0.0
2016-Jan-31 04:33N 47°17' W 002°12'0 0.0
2016-Jan-31 03:33N 47°17' W 002°12'0 0.0
2016-Jan-31 02:33N 47°17' W 002°12'0 0.0
2016-Jan-31 01:33N 47°17' W 002°12'0 0.0
2016-Jan-31 00:33N 47°17' W 002°12'0 0.0
2016-Jan-30 19:13N 47°17' W 002°12'0 0.0
2016-Jan-30 15:31N 47°17' W 002°12'0 0.0
2016-Jan-30 14:33N 47°17' W 002°12'0 0.0
2016-Jan-30 13:33N 47°17' W 002°12'0 0.0
2016-Jan-30 12:33N 47°17' W 002°12'0 0.0
2016-Jan-30 11:34N 47°17' W 002°12'0 0.3
2016-Jan-30 10:34N 47°17' W 002°12'2 1.7
2016-Jan-30 09:33N 47°17' W 002°10'6 0.6
2016-Jan-29 23:29N 47°17' W 002°01'0 0.0
2016-Jan-29 22:30N 47°17' W 002°01'0 0.0
2016-Jan-29 19:22N 47°17' W 002°01'0 0.0
2016-Jan-29 18:33N 47°17' W 002°01'0 0.0
2016-Jan-29 17:33N 47°17' W 002°01'0 0.0
2016-Jan-29 16:29N 47°17' W 002°01'0 0.0
2016-Jan-29 15:32N 47°17' W 002°01'0 0.0
2016-Jan-29 14:22N 47°17' W 002°01'0 0.0
2016-Jan-29 05:10N 47°17' W 002°01'0 0.0
2016-Jan-29 04:33N 47°17' W 002°01'0 0.0
2016-Jan-29 03:32N 47°17' W 002°01'0 0.0
2016-Jan-29 02:33N 47°17' W 002°01'0 0.0
2016-Jan-29 01:23N 47°17' W 002°01'0 0.0
2016-Jan-29 00:31N 47°17' W 002°01'0 0.0
2016-Jan-28 23:33N 47°17' W 002°01'0 0.0
2016-Jan-28 22:33N 47°17' W 002°01'0 0.0
2016-Jan-28 21:33N 47°17' W 002°01'0 0.0
2016-Jan-28 12:32N 47°17' W 002°01'3 3.0
2016-Jan-28 11:33N 47°18' W 002°05'5 4.7
2016-Jan-28 10:33N 47°16' W 002°12'1 0.9
2016-Jan-28 09:14N 47°17' W 002°12'1 1.4
2016-Jan-28 08:31N 47°16' W 002°12'0 0.2
2016-Jan-28 07:14N 47°17' W 002°12'4 6.2
2016-Jan-28 06:33N 47°18' W 002°06'3 3.3
2016-Jan-28 05:31N 47°17' W 002°01'0 0.0
2016-Jan-27 05:30N 47°17' W 002°01'0 0.0
2016-Jan-27 04:33N 47°17' W 002°01'0 0.0
2016-Jan-27 03:33N 47°17' W 002°01'0 0.0
2016-Jan-27 02:33N 47°17' W 002°01'0 0.0
2016-Jan-27 01:33N 47°17' W 002°01'0 0.0
2016-Jan-27 00:21N 47°17' W 002°01'0 0.0
2016-Jan-26 23:33N 47°17' W 002°01'0 0.0
2016-Jan-26 22:30N 47°17' W 002°01'0 0.0
2016-Jan-26 21:08N 47°17' W 002°01'0 0.0
2016-Jan-26 13:29N 47°17' W 002°01'0 0.0
2016-Jan-26 12:33N 47°17' W 002°01'0 0.0
2016-Jan-26 11:30N 47°17' W 002°01'0 0.0
2016-Jan-26 10:32N 47°17' W 002°01'0 0.0
2016-Jan-26 08:30N 47°17' W 002°01'0 0.0
2016-Jan-26 07:32N 47°17' W 002°01'0 0.0
2016-Jan-26 06:33N 47°17' W 002°01'0 0.0
2016-Jan-26 05:33N 47°17' W 002°01'0 0.0
2016-Jan-26 04:33N 47°17' W 002°01'0 0.0
2016-Jan-26 03:33N 47°17' W 002°01'0 0.0
2016-Jan-26 02:33N 47°17' W 002°01'0 0.0
2016-Jan-26 01:33N 47°17' W 002°01'0 0.0
2016-Jan-26 00:33N 47°17' W 002°01'0 0.0
2016-Jan-25 23:33N 47°17' W 002°01'0 0.0
2016-Jan-25 22:33N 47°17' W 002°01'0 0.0
2016-Jan-25 21:32N 47°17' W 002°01'0 0.0
2016-Jan-25 20:29N 47°17' W 002°01'0 0.0
2016-Jan-25 19:33N 47°17' W 002°01'0 0.0
2016-Jan-25 17:14N 47°17' W 002°01'0 0.0
2016-Jan-25 16:33N 47°17' W 002°01'0 0.0
2016-Jan-25 11:33N 47°17' W 002°01'0 0.0
2016-Jan-25 10:30N 47°17' W 002°01'0 0.0
2016-Jan-25 09:27N 47°17' W 002°01'0 0.0
2016-Jan-25 02:17N 47°17' W 002°01'0 0.0
2016-Jan-25 01:30N 47°17' W 002°01'0 0.0
2016-Jan-25 00:33N 47°17' W 002°01'0 0.0
2016-Jan-24 23:32N 47°17' W 002°01'0 0.0
2016-Jan-24 22:33N 47°17' W 002°01'0 0.0
2016-Jan-24 21:33N 47°17' W 002°01'0 0.0
2016-Jan-24 20:33N 47°17' W 002°01'0 0.0
2016-Jan-24 19:33N 47°17' W 002°01'0 0.0
2016-Jan-24 18:33N 47°17' W 002°01'0 0.0
2016-Jan-24 17:33N 47°17' W 002°01'0 0.0
2016-Jan-24 16:33N 47°17' W 002°01'0 0.0
2016-Jan-24 15:33N 47°17' W 002°01'0 0.0
2016-Jan-24 14:32N 47°17' W 002°01'3 2.6
2016-Jan-24 13:33N 47°18' W 002°05'5 5.1
2016-Jan-24 12:33N 47°16' W 002°12'0 0.0
2016-Jan-24 11:33N 47°16' W 002°12'1 0.6
2016-Jan-24 10:33N 47°16' W 002°11'1 1.2
2016-Jan-24 09:33N 47°17' W 002°10'3 3.0
2016-Jan-24 08:33N 47°18' W 002°06'3 3.3
2016-Jan-24 07:32N 47°17' W 002°01'0 0.0
2016-Jan-24 06:33N 47°17' W 002°01'0 0.0
2016-Jan-24 05:30N 47°17' W 002°01'0 0.0
2016-Jan-24 04:33N 47°17' W 002°01'0 0.0
2016-Jan-24 03:32N 47°17' W 002°01'0 0.0
2016-Jan-24 02:33N 47°17' W 002°01'0 0.0
2016-Jan-24 01:33N 47°17' W 002°01'0 0.0
2016-Jan-24 00:32N 47°17' W 002°01'0 0.0
2016-Jan-23 23:29N 47°17' W 002°01'0 0.0
2016-Jan-23 22:30N 47°17' W 002°01'0 0.0
2016-Jan-23 21:27N 47°17' W 002°01'0 0.0
2016-Jan-23 20:33N 47°17' W 002°01'0 0.0
2016-Jan-23 19:32N 47°17' W 002°01'0 0.0
2016-Jan-23 18:33N 47°17' W 002°01'0 0.0
2016-Jan-23 17:33N 47°17' W 002°01'0 0.0
2016-Jan-23 15:31N 47°17' W 002°01'0 0.0
2016-Jan-23 14:29N 47°17' W 002°01'0 0.0
2016-Jan-23 13:32N 47°17' W 002°01'0 0.0
2016-Jan-23 12:33N 47°17' W 002°01'  

Dump ship's entire track history